createdAt,value
2019-04-21T00:00:00.542Z,38.17
2019-04-21T00:02:32.946Z,34.73
2019-04-21T00:05:22.976Z,37.10
2019-04-21T00:07:52.769Z,35.80
2019-04-21T00:10:18.832Z,34.30
2019-04-21T00:12:49.229Z,38.20
2019-04-21T00:15:11.078Z,34.17
2019-04-21T00:17:32.053Z,38.80
2019-04-21T00:20:15.547Z,33.70
2019-04-21T00:22:44.355Z,38.47
2019-04-21T00:25:21.356Z,33.30
2019-04-21T00:27:46.442Z,40.37
2019-04-21T00:30:21.825Z,40.40
2019-04-21T00:32:46.296Z,39.57
2019-04-21T00:35:11.262Z,36.63
2019-04-21T00:37:53.232Z,38.67
2019-04-21T00:40:27.458Z,40.10
2019-04-21T00:42:48.736Z,39.63
2019-04-21T00:45:18.200Z,37.20
2019-04-21T00:48:00.444Z,31.63
2019-04-21T00:50:34.554Z,35.67
2019-04-21T00:53:30.010Z,34.10
2019-04-21T00:55:48.621Z,37.43
2019-04-21T00:58:20.775Z,36.53
2019-04-21T01:00:46.407Z,41.37
2019-04-21T01:03:14.586Z,40.90
2019-04-21T01:05:48.324Z,39.00
2019-04-21T01:08:15.804Z,38.80
2019-04-21T01:10:39.682Z,42.67
2019-04-21T01:13:23.574Z,41.37
2019-04-21T01:15:48.915Z,40.77
2019-04-21T01:18:16.703Z,42.23
2019-04-21T01:20:25.993Z,32.63
2019-04-21T01:22:55.717Z,37.23
2019-04-21T01:25:32.122Z,37.53
2019-04-21T01:28:16.753Z,37.53
2019-04-21T01:30:50.321Z,36.30
2019-04-21T01:33:23.734Z,37.83
2019-04-21T01:35:49.766Z,38.33
2019-04-21T01:38:22.663Z,34.87
2019-04-21T01:40:45.062Z,36.13
2019-04-21T01:43:17.547Z,36.80
2019-04-21T01:45:43.510Z,37.87
2019-04-21T01:48:12.915Z,40.47
2019-04-21T01:50:47.133Z,32.00
2019-04-21T01:53:27.505Z,40.57
2019-04-21T01:56:11.764Z,41.13
2019-04-21T01:58:34.152Z,38.33
2019-04-21T02:01:08.696Z,43.07
2019-04-21T02:03:52.879Z,38.50
2019-04-21T02:06:19.499Z,40.63
2019-04-21T02:08:44.753Z,42.07
2019-04-21T02:11:16.989Z,37.73
2019-04-21T02:13:53.123Z,41.57
2019-04-21T02:16:16.933Z,45.50
2019-04-21T02:18:45.364Z,39.23
2019-04-21T02:21:09.141Z,43.37
2019-04-21T02:23:54.566Z,42.87
2019-04-21T02:26:23.008Z,38.30
2019-04-21T02:28:55.281Z,44.07
2019-04-21T02:31:29.021Z,40.30
2019-04-21T02:34:16.923Z,38.87
2019-04-21T02:41:30.822Z,35.83
2019-04-21T02:51:33.630Z,37.97
2019-04-21T02:54:32.330Z,44.00
2019-04-21T02:56:34.344Z,37.90
2019-04-21T02:59:06.816Z,39.10
2019-04-21T03:01:56.737Z,42.27
2019-04-21T03:04:44.940Z,39.20
2019-04-21T03:07:15.160Z,43.10
2019-04-21T03:09:43.111Z,41.17
2019-04-21T03:17:18.260Z,38.60
2019-04-21T03:19:55.537Z,34.23
2019-04-21T03:22:20.055Z,36.50
2019-04-21T03:27:34.907Z,32.53
2019-04-21T03:29:46.134Z,37.47
2019-04-21T03:33:06.056Z,36.20
2019-04-21T03:35:33.868Z,34.47
2019-04-21T03:37:49.812Z,33.90
2019-04-21T03:47:22.901Z,34.67
2019-04-21T03:52:19.844Z,32.63
2019-04-21T03:55:47.841Z,30.63
2019-04-21T04:00:34.673Z,35.50
2019-04-21T04:03:30.086Z,32.30
2019-04-21T04:05:59.626Z,30.10
2019-04-21T04:08:35.021Z,29.33
2019-04-21T04:13:27.660Z,25.57
2019-04-21T04:18:29.951Z,34.17
2019-04-21T04:20:54.356Z,34.37
2019-04-21T04:23:21.126Z,26.93
2019-04-21T04:25:53.528Z,25.17
2019-04-21T04:28:28.649Z,26.80
2019-04-21T04:30:52.098Z,22.03
2019-04-21T04:33:27.969Z,31.63
2019-04-21T04:36:05.926Z,28.80
2019-04-21T04:41:06.115Z,26.07
2019-04-21T04:43:47.993Z,28.33
2019-04-21T04:45:58.976Z,23.60
2019-04-21T04:48:29.132Z,24.03
2019-04-21T04:51:14.485Z,23.50
2019-04-21T04:58:55.500Z,26.87
2019-04-21T05:01:21.515Z,23.87
2019-04-21T05:03:44.364Z,25.60
2019-04-21T05:14:02.781Z,24.33
2019-04-21T05:19:06.410Z,20.00
2019-04-21T05:23:46.959Z,23.13
2019-04-21T05:26:10.964Z,28.13
2019-04-21T05:28:42.050Z,23.83
2019-04-21T05:31:32.795Z,23.67
2019-04-21T05:34:07.483Z,29.67
2019-04-21T05:36:45.984Z,21.43
2019-04-21T05:39:18.530Z,22.07
2019-04-21T05:41:42.003Z,22.80
2019-04-21T05:44:28.029Z,18.07
2019-04-21T05:47:04.885Z,21.90
2019-04-21T05:49:29.333Z,24.63
2019-04-21T05:51:59.843Z,20.83
2019-04-21T05:54:42.295Z,18.70
2019-04-21T05:57:01.103Z,21.00
2019-04-21T05:59:32.696Z,18.73
2019-04-21T06:02:13.936Z,17.60
2019-04-21T06:07:17.166Z,15.20
2019-04-21T06:09:48.768Z,14.73
2019-04-21T06:12:08.838Z,18.37
2019-04-21T06:14:46.546Z,14.07
2019-04-21T06:17:11.056Z,14.60
2019-04-21T06:19:43.734Z,11.20
2019-04-21T06:22:10.457Z,9.47
2019-04-21T06:24:42.321Z,10.67
2019-04-21T06:27:17.626Z,12.40
2019-04-21T06:29:41.588Z,13.03
2019-04-21T06:35:00.723Z,10.30
2019-04-21T06:40:03.160Z,9.23
2019-04-21T06:42:20.549Z,6.87
2019-04-21T06:49:50.248Z,9.13
2019-04-21T06:52:44.814Z,10.07
2019-04-21T06:54:57.273Z,8.37
2019-04-21T06:57:23.927Z,8.67
2019-04-21T06:59:49.971Z,8.73
2019-04-21T07:02:36.089Z,9.03
2019-04-21T07:04:56.062Z,9.47
2019-04-21T07:07:21.773Z,9.43
2019-04-21T07:09:57.501Z,6.90
2019-04-21T07:12:26.122Z,10.63
2019-04-21T07:14:52.769Z,8.13
2019-04-21T07:19:57.440Z,8.40
2019-04-21T07:22:27.310Z,8.40
2019-04-21T07:25:00.647Z,12.10
2019-04-21T07:27:29.218Z,6.27
2019-04-21T07:30:02.522Z,7.70
2019-04-21T07:32:26.794Z,7.80
2019-04-21T07:34:57.625Z,7.53
2019-04-21T07:37:23.956Z,7.70
2019-04-21T07:39:54.821Z,6.67
2019-04-21T07:42:24.082Z,6.87
2019-04-21T07:44:52.358Z,7.47
2019-04-21T07:47:36.975Z,5.87
2019-04-21T07:50:08.711Z,6.23
2019-04-21T07:52:51.382Z,8.30
2019-04-21T07:57:37.579Z,5.50
2019-04-21T08:02:49.173Z,6.80
2019-04-21T08:05:20.491Z,4.43
2019-04-21T08:07:55.024Z,6.27
2019-04-21T08:10:16.076Z,6.10
2019-04-21T08:12:44.745Z,7.00
2019-04-21T08:15:23.543Z,7.13
2019-04-21T08:17:46.933Z,8.17
2019-04-21T08:20:18.797Z,7.60
2019-04-21T08:22:51.751Z,6.27
2019-04-21T08:25:19.376Z,6.27
2019-04-21T08:30:19.064Z,5.83
2019-04-21T08:35:51.046Z,5.00
2019-04-21T08:37:48.474Z,5.57
2019-04-21T08:40:28.984Z,5.30
2019-04-21T08:42:54.092Z,6.00
2019-04-21T08:45:25.457Z,10.27
2019-04-21T08:47:53.756Z,6.13
2019-04-21T08:50:20.749Z,8.07
2019-04-21T08:52:56.789Z,5.57
2019-04-21T08:55:41.970Z,5.50
2019-04-21T08:58:21.922Z,5.03
2019-04-21T09:01:19.193Z,3.73
2019-04-21T09:03:56.733Z,6.30
2019-04-21T09:06:40.313Z,7.73
2019-04-21T09:09:01.544Z,6.10
2019-04-21T09:11:22.223Z,6.23
2019-04-21T09:13:59.500Z,7.87
2019-04-21T09:16:24.902Z,6.70
2019-04-21T09:18:48.709Z,5.57
2019-04-21T09:21:25.875Z,10.33
2019-04-21T09:23:56.457Z,8.40
2019-04-21T09:26:25.326Z,5.57
2019-04-21T09:28:47.986Z,7.23
2019-04-21T09:31:10.318Z,6.03
2019-04-21T09:33:45.381Z,6.63
2019-04-21T09:36:14.530Z,3.30
2019-04-21T09:38:42.416Z,4.00
2019-04-21T09:41:15.499Z,2.83
2019-04-21T09:43:46.651Z,4.37
2019-04-21T09:46:11.800Z,4.03
2019-04-21T09:48:49.773Z,3.20
2019-04-21T09:51:11.089Z,4.50
2019-04-21T09:53:43.262Z,6.00
2019-04-21T09:56:15.877Z,5.23
2019-04-21T09:58:46.067Z,10.50
2019-04-21T10:01:18.530Z,7.33
2019-04-21T10:03:46.209Z,3.80
2019-04-21T10:06:11.290Z,4.57
2019-04-21T10:08:40.553Z,3.40
2019-04-21T10:11:09.831Z,7.17
2019-04-21T10:13:38.360Z,3.53
2019-04-21T10:16:21.914Z,5.53
2019-04-21T10:18:50.506Z,4.43
2019-04-21T10:21:19.771Z,4.03
2019-04-21T10:23:48.238Z,3.47
2019-04-21T10:26:16.926Z,3.87
2019-04-21T10:28:46.778Z,4.37
2019-04-21T10:31:16.624Z,2.83
2019-04-21T10:33:46.256Z,4.10
2019-04-21T10:36:15.178Z,4.63
2019-04-21T10:38:49.659Z,3.87
2019-04-21T10:41:15.043Z,3.40
2019-04-21T10:43:45.100Z,3.13
2019-04-21T10:46:14.854Z,3.63
2019-04-21T10:48:43.303Z,3.47
2019-04-21T10:51:12.915Z,4.13
2019-04-21T10:53:42.860Z,3.43
2019-04-21T10:56:20.186Z,4.77
2019-04-21T10:58:46.462Z,5.43
2019-04-21T11:01:21.043Z,5.03
2019-04-21T11:04:21.137Z,2.87
2019-04-21T11:06:46.437Z,3.30
2019-04-21T11:09:15.832Z,4.53
2019-04-21T11:11:47.834Z,3.00
2019-04-21T11:14:15.483Z,3.00
2019-04-21T11:16:46.265Z,3.23
2019-04-21T11:19:15.848Z,3.23
2019-04-21T11:21:44.919Z,3.03
2019-04-21T11:24:14.322Z,3.10
2019-04-21T11:26:43.073Z,2.77
2019-04-21T11:29:12.860Z,2.67
2019-04-21T11:31:43.012Z,2.27
2019-04-21T11:34:11.645Z,2.13
2019-04-21T11:36:41.615Z,2.27
2019-04-21T11:39:31.562Z,2.13
2019-04-21T11:41:51.983Z,2.10
2019-04-21T11:44:24.248Z,4.63
2019-04-21T11:46:52.129Z,2.77
2019-04-21T11:49:22.231Z,2.50
2019-04-21T11:51:51.148Z,3.27
2019-04-21T11:54:19.682Z,3.47
2019-04-21T11:56:48.539Z,2.60
2019-04-21T11:59:17.497Z,2.90
2019-04-21T12:01:47.543Z,5.30
2019-04-21T12:04:16.219Z,1.70
2019-04-21T12:06:47.704Z,2.93
2019-04-21T12:09:15.030Z,3.10
2019-04-21T12:11:43.475Z,2.70
2019-04-21T12:14:12.195Z,2.40
2019-04-21T12:16:41.521Z,3.10
2019-04-21T12:19:09.982Z,1.90
2019-04-21T12:21:49.181Z,1.80
2019-04-21T12:24:09.017Z,2.57
2019-04-21T12:26:37.931Z,6.03
2019-04-21T12:29:06.352Z,2.00
2019-04-21T12:31:53.877Z,1.87
2019-04-21T12:34:23.736Z,4.23
2019-04-21T12:36:52.839Z,2.00
2019-04-21T12:39:22.899Z,1.93
2019-04-21T12:41:51.531Z,2.93
2019-04-21T12:44:20.493Z,1.87
2019-04-21T12:46:49.838Z,2.30
2019-04-21T12:49:18.370Z,1.80
2019-04-21T12:51:48.035Z,2.40
2019-04-21T12:54:17.559Z,1.60
2019-04-21T12:56:47.538Z,2.03
2019-04-21T12:59:16.963Z,1.70
2019-04-21T13:01:45.474Z,1.63
2019-04-21T13:04:13.926Z,3.13
2019-04-21T13:06:43.562Z,2.00
2019-04-21T13:09:14.961Z,2.60
2019-04-21T13:11:43.425Z,2.63
2019-04-21T13:14:11.912Z,2.10
2019-04-21T13:16:43.384Z,4.80
2019-04-21T13:19:11.454Z,2.50
2019-04-21T13:21:40.366Z,4.67
2019-04-21T13:24:09.133Z,8.57
2019-04-21T13:26:46.743Z,32.40
2019-04-21T13:29:08.621Z,17.10
2019-04-21T13:31:38.342Z,15.37
2019-04-21T13:34:08.154Z,8.97
2019-04-21T13:36:37.037Z,6.80
2019-04-21T13:42:02.873Z,14.27
2019-04-21T13:44:21.355Z,41.73
2019-04-21T13:46:50.554Z,15.83
2019-04-21T13:49:19.388Z,7.63
2019-04-21T13:51:48.186Z,4.70
2019-04-21T13:54:17.874Z,3.60
2019-04-21T13:56:46.943Z,6.57
2019-04-21T13:59:16.067Z,3.97
2019-04-21T14:01:45.683Z,3.13
2019-04-21T14:04:15.868Z,3.47
2019-04-21T14:06:44.783Z,3.10
2019-04-21T14:09:13.822Z,3.03
2019-04-21T14:11:43.471Z,3.07
2019-04-21T14:14:12.461Z,2.70
2019-04-21T14:16:42.358Z,2.73
2019-04-21T14:19:10.843Z,2.30
2019-04-21T14:21:39.368Z,2.63
2019-04-21T14:24:08.848Z,2.73
2019-04-21T14:26:38.580Z,2.27
2019-04-21T14:29:07.781Z,2.83
2019-04-21T14:31:36.237Z,2.17
2019-04-21T14:34:05.984Z,2.20
2019-04-21T14:36:34.923Z,3.23
2019-04-21T14:39:04.938Z,2.20
2019-04-21T14:41:33.422Z,2.67
2019-04-21T14:44:02.870Z,2.43
2019-04-21T14:46:53.392Z,2.20
2019-04-21T14:49:41.581Z,3.67
2019-04-21T14:52:23.140Z,4.47
2019-04-21T14:55:00.636Z,6.50
2019-04-21T14:57:29.563Z,2.43
2019-04-21T14:59:58.053Z,3.00
2019-04-21T15:02:27.803Z,4.10
2019-04-21T15:04:57.684Z,2.03
2019-04-21T15:07:27.563Z,1.60
2019-04-21T15:10:04.801Z,2.20
2019-04-21T15:12:27.817Z,2.00
2019-04-21T15:14:56.395Z,2.33
2019-04-21T15:17:26.117Z,2.13
2019-04-21T15:19:59.592Z,2.23
2019-04-21T15:22:26.163Z,2.10
2019-04-21T15:24:54.644Z,3.00
2019-04-21T15:27:23.198Z,1.80
2019-04-21T15:29:53.002Z,3.47
2019-04-21T15:32:22.298Z,2.73
2019-04-21T15:34:52.046Z,3.43
2019-04-21T15:37:21.945Z,1.73
2019-04-21T15:39:50.965Z,1.87
2019-04-21T15:42:20.803Z,2.43
2019-04-21T15:44:50.524Z,2.03
2019-04-21T15:47:19.903Z,2.23
2019-04-21T15:50:02.561Z,1.80
2019-04-21T15:52:26.053Z,3.00
2019-04-21T15:54:58.998Z,3.30
2019-04-21T15:57:37.688Z,3.73
2019-04-21T16:00:16.380Z,2.37
2019-04-21T16:02:46.732Z,2.90
2019-04-21T16:05:15.205Z,2.73
2019-04-21T16:07:44.458Z,3.77
2019-04-21T16:10:26.470Z,3.67
2019-04-21T16:12:43.784Z,4.97
2019-04-21T16:15:12.546Z,4.73
2019-04-21T16:17:41.499Z,2.90
2019-04-21T16:20:10.248Z,2.40
2019-04-21T16:22:38.950Z,2.93
2019-04-21T16:25:08.632Z,2.60
2019-04-21T16:27:37.300Z,3.07
2019-04-21T16:30:06.075Z,3.43
2019-04-21T16:32:34.558Z,2.50
2019-04-21T16:35:08.392Z,4.17
2019-04-21T16:37:33.343Z,2.50
2019-04-21T16:40:03.359Z,2.20
2019-04-21T16:42:32.172Z,2.40
2019-04-21T16:45:00.984Z,2.10
2019-04-21T16:47:30.282Z,4.03
2019-04-21T16:49:58.818Z,2.20
2019-04-21T16:52:32.207Z,2.30
2019-04-21T16:55:14.915Z,7.17
2019-04-21T16:58:03.147Z,2.23
2019-04-21T17:00:31.692Z,2.60
2019-04-21T17:02:54.686Z,2.30
2019-04-21T17:05:24.551Z,2.43
2019-04-21T17:07:53.091Z,2.03
2019-04-21T17:10:22.497Z,3.80
2019-04-21T17:12:51.367Z,5.60
2019-04-21T17:15:35.686Z,5.80
2019-04-21T17:18:10.236Z,5.83
2019-04-21T17:20:35.212Z,5.43
2019-04-21T17:22:51.486Z,4.53
2019-04-21T17:25:23.163Z,4.67
2019-04-21T17:27:51.343Z,4.60
2019-04-21T17:30:20.006Z,8.00
2019-04-21T17:32:51.413Z,5.00
2019-04-21T17:35:19.791Z,5.60
2019-04-21T17:37:50.022Z,7.03
2019-04-21T17:40:22.288Z,5.67
2019-04-21T17:42:59.760Z,5.77
2019-04-21T17:45:21.251Z,8.10
2019-04-21T17:47:57.253Z,5.50
2019-04-21T17:50:45.901Z,4.53
2019-04-21T17:53:26.510Z,5.83
2019-04-21T17:55:53.123Z,10.97
2019-04-21T17:58:34.139Z,5.13
2019-04-21T18:03:46.329Z,6.00
2019-04-21T18:05:59.376Z,5.60
2019-04-21T18:08:38.314Z,7.23
2019-04-21T18:10:59.459Z,7.50
2019-04-21T18:13:21.097Z,5.57
2019-04-21T18:16:02.869Z,5.90
2019-04-21T18:18:18.695Z,5.67
2019-04-21T18:20:54.643Z,6.70
2019-04-21T18:23:46.903Z,9.47
2019-04-21T18:26:09.979Z,6.27
2019-04-21T18:28:36.679Z,8.83
2019-04-21T18:31:10.208Z,5.80
2019-04-21T18:33:43.903Z,5.50
2019-04-21T18:36:27.116Z,7.47
2019-04-21T18:39:12.302Z,8.03
2019-04-21T18:41:34.774Z,5.97
2019-04-21T18:47:24.196Z,8.80
2019-04-21T18:49:42.211Z,4.90
2019-04-21T18:52:24.071Z,7.20
2019-04-21T18:54:58.566Z,6.73
2019-04-21T18:57:26.584Z,5.67
2019-04-21T18:59:47.304Z,7.43
2019-04-21T19:02:18.089Z,6.60
2019-04-21T19:04:46.337Z,5.03
2019-04-21T19:07:30.577Z,8.43
2019-04-21T19:10:16.074Z,6.17
2019-04-21T19:14:58.013Z,6.30
2019-04-21T19:20:14.402Z,5.90
2019-04-21T19:22:32.883Z,7.83
2019-04-21T19:27:31.066Z,7.03
2019-04-21T19:32:37.608Z,9.17
2019-04-21T19:34:52.401Z,7.50
2019-04-21T19:37:22.932Z,5.70
2019-04-21T19:40:01.828Z,7.20
2019-04-21T19:42:30.892Z,8.57
2019-04-21T19:45:05.937Z,5.77
2019-04-21T19:47:41.708Z,8.07
2019-04-21T19:50:06.223Z,5.83
2019-04-21T19:52:31.980Z,11.07
2019-04-21T19:54:50.756Z,9.83
2019-04-21T19:57:20.951Z,5.53
2019-04-21T19:59:54.956Z,7.43
2019-04-21T20:02:20.513Z,8.07
2019-04-21T20:04:57.741Z,8.57
2019-04-21T20:07:32.913Z,5.60
2019-04-21T20:10:14.410Z,6.17
2019-04-21T20:12:39.785Z,7.13
2019-04-21T20:15:22.161Z,6.83
2019-04-21T20:17:36.420Z,7.23
2019-04-21T20:19:51.986Z,9.87
2019-04-21T20:22:24.021Z,7.00
2019-04-21T20:24:58.654Z,8.57
2019-04-21T20:27:34.791Z,7.00
2019-04-21T20:30:07.257Z,9.67
2019-04-21T20:32:46.414Z,9.13
2019-04-21T20:35:18.114Z,9.53
2019-04-21T20:37:37.839Z,9.47
2019-04-21T20:40:00.096Z,8.87
2019-04-21T20:42:38.915Z,6.50
2019-04-21T20:45:25.327Z,6.33
2019-04-21T20:47:32.170Z,7.27
2019-04-21T20:50:09.435Z,9.73
2019-04-21T20:52:41.757Z,8.43
2019-04-21T20:55:07.242Z,10.87
2019-04-21T20:57:39.777Z,9.07
2019-04-21T21:00:13.668Z,7.33
2019-04-21T21:02:48.904Z,9.57
2019-04-21T21:05:02.990Z,8.40
2019-04-21T21:07:44.144Z,8.60
2019-04-21T21:10:12.243Z,8.33
2019-04-21T21:12:50.632Z,5.50
2019-04-21T21:15:04.001Z,6.23
2019-04-21T21:20:21.228Z,7.50
2019-04-21T21:22:42.376Z,7.90
2019-04-21T21:25:24.699Z,7.67
2019-04-21T21:27:43.817Z,7.43
2019-04-21T21:30:15.778Z,6.60
2019-04-21T21:32:47.472Z,8.53
2019-04-21T21:35:13.502Z,8.03
2019-04-21T21:37:49.561Z,8.33
2019-04-21T21:40:20.067Z,7.73
2019-04-21T21:42:35.324Z,8.70
2019-04-21T21:45:04.902Z,11.47
2019-04-21T21:47:48.586Z,11.87
2019-04-21T21:50:11.069Z,17.33
2019-04-21T21:52:44.768Z,12.47
2019-04-21T21:55:01.611Z,9.90
2019-04-21T21:57:32.966Z,10.07
2019-04-21T22:00:06.782Z,12.00
2019-04-21T22:02:36.012Z,6.97
2019-04-21T22:05:08.769Z,9.17
2019-04-21T22:07:33.665Z,7.27
2019-04-21T22:10:02.444Z,8.07
2019-04-21T22:12:40.362Z,8.63
2019-04-21T22:15:10.085Z,8.57
2019-04-21T22:17:53.023Z,8.53
2019-04-21T22:20:20.163Z,7.97
2019-04-21T22:22:45.815Z,10.33
2019-04-21T22:25:10.666Z,4.67
2019-04-21T22:27:33.383Z,7.27
2019-04-21T22:30:05.639Z,7.73
2019-04-21T22:32:34.602Z,8.83
2019-04-21T22:35:07.567Z,9.23
2019-04-21T22:37:43.901Z,7.67
2019-04-21T22:40:15.652Z,7.87
2019-04-21T22:42:44.449Z,8.43
2019-04-21T22:45:03.216Z,6.93
2019-04-21T22:47:34.590Z,8.13
2019-04-21T22:50:02.687Z,8.23
2019-04-21T22:52:32.344Z,6.27
2019-04-21T22:55:08.315Z,5.83
2019-04-21T22:57:39.119Z,5.90
2019-04-21T23:00:07.127Z,7.87
2019-04-21T23:02:35.067Z,8.30
2019-04-21T23:05:03.982Z,7.53
2019-04-21T23:07:40.236Z,5.67
2019-04-21T23:10:03.486Z,8.07
2019-04-21T23:12:36.673Z,5.10
2019-04-21T23:15:09.268Z,7.37
2019-04-21T23:17:53.189Z,5.00
2019-04-21T23:20:25.459Z,5.37
2019-04-21T23:23:00.912Z,4.83
2019-04-21T23:25:24.574Z,5.83
2019-04-21T23:27:55.524Z,6.43
2019-04-21T23:30:34.421Z,6.50
2019-04-21T23:32:46.302Z,5.43
2019-04-21T23:35:16.938Z,4.77
2019-04-21T23:37:44.611Z,6.37
2019-04-21T23:40:12.653Z,5.63
2019-04-21T23:42:41.542Z,5.33
2019-04-21T23:45:08.788Z,5.23
2019-04-21T23:47:47.813Z,4.87
2019-04-21T23:50:23.805Z,5.90
2019-04-21T23:52:39.387Z,5.63
2019-04-21T23:55:09.304Z,6.20
2019-04-21T23:57:43.261Z,5.40
